createdAt,value
2018-06-11T00:01:03.867Z,95150.00
2018-06-11T00:03:35.108Z,95156.00
2018-06-11T00:06:06.544Z,95163.00
2018-06-11T00:08:37.613Z,95163.00
2018-06-11T00:11:08.699Z,95164.00
2018-06-11T00:13:40.008Z,95165.00
2018-06-11T00:16:11.520Z,95161.00
2018-06-11T00:18:42.682Z,95163.00
2018-06-11T00:21:14.065Z,95162.00
2018-06-11T00:23:45.328Z,95159.00
2018-06-11T00:26:16.858Z,95154.00
2018-06-11T00:28:47.915Z,95149.00
2018-06-11T00:31:19.199Z,95147.00
2018-06-11T00:33:50.361Z,95147.00
2018-06-11T00:36:21.574Z,95143.00
2018-06-11T00:38:52.570Z,95141.00
2018-06-11T00:41:23.821Z,95133.00
2018-06-11T00:43:54.999Z,95141.00
2018-06-11T00:46:26.267Z,95148.00
2018-06-11T00:49:01.249Z,95146.00
2018-06-11T00:51:32.885Z,95141.00
2018-06-11T00:54:04.093Z,95129.00
2018-06-11T00:56:35.277Z,95126.00
2018-06-11T00:59:06.468Z,95135.00
2018-06-11T01:01:37.741Z,95137.00
2018-06-11T01:04:08.861Z,95139.00
2018-06-11T01:06:40.236Z,95137.00
2018-06-11T01:09:11.549Z,95143.00
2018-06-11T01:11:42.965Z,95152.00
2018-06-11T01:14:14.240Z,95147.00
2018-06-11T01:16:45.869Z,95150.00
2018-06-11T01:19:17.055Z,95143.00
2018-06-11T01:21:48.184Z,95148.00
2018-06-11T01:24:19.271Z,95141.00
2018-06-11T01:26:50.648Z,95148.00
2018-06-11T01:29:25.166Z,95154.00
2018-06-11T01:31:56.516Z,95157.00
2018-06-11T01:34:27.956Z,95157.00
2018-06-11T01:37:12.303Z,95153.00
2018-06-11T01:39:43.280Z,95148.00
2018-06-11T01:42:14.527Z,95142.00
2018-06-11T01:44:49.947Z,95143.00
2018-06-11T01:47:21.395Z,95135.00
2018-06-11T01:49:52.461Z,95132.00
2018-06-11T01:52:23.623Z,95134.00
2018-06-11T01:54:55.675Z,95130.00
2018-06-11T01:57:27.012Z,95131.00
2018-06-11T01:59:58.259Z,95125.00
2018-06-11T02:02:29.695Z,95126.00
2018-06-11T02:05:00.952Z,95135.00
2018-06-11T02:07:32.149Z,95135.00
2018-06-11T02:10:03.336Z,95131.00
2018-06-11T02:12:34.588Z,95139.00
2018-06-11T02:15:05.813Z,95136.00
2018-06-11T02:17:37.603Z,95139.00
2018-06-11T02:20:08.843Z,95140.00
2018-06-11T02:22:39.896Z,95140.00
2018-06-11T02:25:12.273Z,95132.00
2018-06-11T02:27:43.588Z,95130.00
2018-06-11T02:30:14.645Z,95139.00
2018-06-11T02:32:45.692Z,95132.00
2018-06-11T02:35:16.500Z,95129.00
2018-06-11T02:37:47.332Z,95125.00
2018-06-11T02:40:18.392Z,95125.00
2018-06-11T02:42:49.387Z,95128.00
2018-06-11T02:45:20.672Z,95125.00
2018-06-11T02:47:52.043Z,95131.00
2018-06-11T02:50:23.312Z,95137.00
2018-06-11T02:52:54.535Z,95144.00
2018-06-11T02:55:25.596Z,95128.00
2018-06-11T02:58:05.000Z,95130.00
2018-06-11T03:00:36.234Z,95129.00
2018-06-11T03:03:07.769Z,95135.00
2018-06-11T03:05:38.820Z,95130.00
2018-06-11T03:08:09.906Z,95137.00
2018-06-11T03:13:41.792Z,95143.00
2018-06-11T03:16:13.103Z,95148.00
2018-06-11T03:18:44.965Z,95146.00
2018-06-11T03:21:16.164Z,95140.00
2018-06-11T03:23:47.585Z,95133.00
2018-06-11T03:26:18.853Z,95127.00
2018-06-11T03:28:50.298Z,95127.00
2018-06-11T03:31:21.428Z,95122.00
2018-06-11T03:33:52.405Z,95126.00
2018-06-11T03:36:23.256Z,95131.00
2018-06-11T03:38:54.545Z,95122.00
2018-06-11T03:41:25.650Z,95124.00
2018-06-11T03:43:56.769Z,95124.00
2018-06-11T03:46:38.788Z,95131.00
2018-06-11T03:49:10.251Z,95132.00
2018-06-11T03:51:41.415Z,95134.00
2018-06-11T03:54:12.519Z,95140.00
2018-06-11T03:56:43.736Z,95138.00
2018-06-11T03:59:15.029Z,95140.00
2018-06-11T04:01:46.168Z,95133.00
2018-06-11T04:04:17.619Z,95133.00
2018-06-11T04:06:48.708Z,95135.00
2018-06-11T04:09:19.994Z,95134.00
2018-06-11T04:11:51.092Z,95135.00
2018-06-11T04:17:19.468Z,95136.00
2018-06-11T04:19:51.516Z,95134.00
2018-06-11T04:22:22.627Z,95139.00
2018-06-11T04:24:53.887Z,95140.00
2018-06-11T04:27:25.070Z,95138.00
2018-06-11T04:29:56.272Z,95141.00
2018-06-11T04:32:27.392Z,95137.00
2018-06-11T04:34:58.412Z,95133.00
2018-06-11T04:37:29.691Z,95134.00
2018-06-11T04:40:01.106Z,95142.00
2018-06-11T04:42:32.253Z,95144.00
2018-06-11T04:45:03.716Z,95141.00
2018-06-11T04:47:34.964Z,95134.00
2018-06-11T04:50:06.104Z,95137.00
2018-06-11T04:52:37.670Z,95135.00
2018-06-11T04:55:08.587Z,95131.00
2018-06-11T04:57:39.630Z,95127.00
2018-06-11T05:00:11.045Z,95134.00
2018-06-11T05:02:42.227Z,95136.00
2018-06-11T05:05:13.553Z,95139.00
2018-06-11T05:07:44.753Z,95139.00
2018-06-11T05:10:15.597Z,95146.00
2018-06-11T05:12:46.404Z,95144.00
2018-06-11T05:15:17.284Z,95147.00
2018-06-11T05:17:48.333Z,95150.00
2018-06-11T05:20:19.437Z,95152.00
2018-06-11T05:23:10.197Z,95155.00
2018-06-11T05:25:41.496Z,95153.00
2018-06-11T05:28:12.351Z,95145.00
2018-06-11T05:30:43.483Z,95144.00
2018-06-11T05:33:14.304Z,95146.00
2018-06-11T05:35:45.655Z,95141.00
2018-06-11T05:38:16.512Z,95137.00
2018-06-11T05:40:47.381Z,95144.00
2018-06-11T05:43:25.355Z,95145.00
2018-06-11T05:45:56.551Z,95144.00
2018-06-11T05:48:27.688Z,95139.00
2018-06-11T05:50:58.927Z,95141.00
2018-06-11T05:53:30.195Z,95149.00
2018-06-11T05:56:01.262Z,95151.00
2018-06-11T05:58:32.108Z,95149.00
2018-06-11T06:01:03.292Z,95150.00
2018-06-11T06:03:34.479Z,95150.00
2018-06-11T06:06:05.637Z,95155.00
2018-06-11T06:08:36.492Z,95151.00
2018-06-11T06:11:07.664Z,95146.00
2018-06-11T06:13:38.847Z,95140.00
2018-06-11T06:16:09.967Z,95132.00
2018-06-11T06:18:40.891Z,95134.00
2018-06-11T06:21:11.936Z,95133.00
2018-06-11T06:23:42.897Z,95119.00
2018-06-11T06:26:14.053Z,95120.00
2018-06-11T06:28:44.908Z,95123.00
2018-06-11T06:31:20.780Z,95125.00
2018-06-11T06:33:54.243Z,95130.00
2018-06-11T06:36:25.934Z,95124.00
2018-06-11T06:39:02.268Z,95122.00
2018-06-11T06:41:33.628Z,95116.00
2018-06-11T06:44:04.863Z,95118.00
2018-06-11T06:46:35.990Z,95120.00
2018-06-11T06:49:07.222Z,95124.00
2018-06-11T06:51:38.561Z,95129.00
2018-06-11T06:54:14.009Z,95131.00
2018-06-11T06:56:45.173Z,95134.00
2018-06-11T06:59:16.008Z,95133.00
2018-06-11T07:01:47.143Z,95131.00
2018-06-11T07:04:17.969Z,95125.00
2018-06-11T07:06:49.426Z,95127.00
2018-06-11T07:09:21.983Z,95124.00
2018-06-11T07:11:53.061Z,95118.00
2018-06-11T07:14:24.239Z,95124.00
2018-06-11T07:16:55.272Z,95127.00
2018-06-11T07:19:26.487Z,95135.00
2018-06-11T07:22:00.336Z,95130.00
2018-06-11T07:24:34.893Z,95131.00
2018-06-11T07:27:10.339Z,95136.00
2018-06-11T07:29:43.784Z,95135.00
2018-06-11T07:32:15.467Z,95132.00
2018-06-11T07:34:46.454Z,95131.00
2018-06-11T07:37:17.873Z,95136.00
2018-06-11T07:39:48.968Z,95136.00
2018-06-11T07:42:20.349Z,95142.00
2018-06-11T07:44:51.411Z,95146.00
2018-06-11T07:47:23.188Z,95142.00
2018-06-11T07:49:54.408Z,95148.00
2018-06-11T07:52:25.642Z,95149.00
2018-06-11T07:54:56.963Z,95150.00
2018-06-11T07:57:28.586Z,95150.00
2018-06-11T08:00:01.411Z,95152.00
2018-06-11T08:02:33.047Z,95162.00
2018-06-11T08:05:05.115Z,95164.00
2018-06-11T08:07:36.443Z,95157.00
2018-06-11T08:10:07.733Z,95156.00
2018-06-11T08:12:39.112Z,95155.00
2018-06-11T08:15:10.440Z,95145.00
2018-06-11T08:17:41.790Z,95147.00
2018-06-11T08:20:13.301Z,95144.00
2018-06-11T08:22:44.808Z,95140.00
2018-06-11T08:25:15.904Z,95131.00
2018-06-11T08:27:47.827Z,95131.00
2018-06-11T08:30:19.288Z,95129.00
2018-06-11T08:32:50.697Z,95140.00
2018-06-11T08:35:21.559Z,95151.00
2018-06-11T08:37:52.633Z,95147.00
2018-06-11T08:40:23.438Z,95141.00
2018-06-11T08:42:54.445Z,95148.00
2018-06-11T08:45:25.577Z,95148.00
2018-06-11T08:47:56.800Z,95145.00
2018-06-11T08:50:27.903Z,95144.00
2018-06-11T08:53:00.841Z,95146.00
2018-06-11T08:55:33.773Z,95146.00
2018-06-11T08:58:05.985Z,95152.00
2018-06-11T09:00:41.492Z,95154.00
2018-06-11T09:03:12.708Z,95156.00
2018-06-11T09:05:43.997Z,95158.00
2018-06-11T09:08:15.351Z,95156.00
2018-06-11T09:10:46.605Z,95161.00
2018-06-11T09:16:14.796Z,95162.00
2018-06-11T09:18:46.376Z,95158.00
2018-06-11T09:21:17.697Z,95155.00
2018-06-11T09:23:49.202Z,95146.00
2018-06-11T09:26:22.536Z,95147.00
2018-06-11T09:28:53.703Z,95149.00
2018-06-11T09:31:24.832Z,95149.00
2018-06-11T09:33:56.292Z,95150.00
2018-06-11T09:36:27.859Z,95143.00
2018-06-11T09:38:59.247Z,95137.00
2018-06-11T09:41:32.140Z,95138.00
2018-06-11T09:44:03.406Z,95136.00
2018-06-11T09:46:34.669Z,95141.00
2018-06-11T09:49:06.467Z,95141.00
2018-06-11T09:51:37.701Z,95144.00
2018-06-11T09:54:09.176Z,95143.00
2018-06-11T09:56:45.791Z,95143.00
2018-06-11T09:59:16.822Z,95141.00
2018-06-11T10:01:47.904Z,95138.00
2018-06-11T10:04:19.508Z,95137.00
2018-06-11T10:06:50.585Z,95135.00
2018-06-11T10:09:21.626Z,95136.00
2018-06-11T10:11:53.196Z,95134.00
2018-06-11T10:14:24.610Z,95126.00
2018-06-11T10:16:55.861Z,95133.00
2018-06-11T10:19:27.160Z,95141.00
2018-06-11T10:21:58.356Z,95140.00
2018-06-11T10:24:29.640Z,95136.00
2018-06-11T10:27:00.477Z,95133.00
2018-06-11T10:29:31.364Z,95145.00
2018-06-11T10:32:02.516Z,95146.00
2018-06-11T10:34:33.726Z,95149.00
2018-06-11T10:37:22.802Z,95141.00
2018-06-11T10:39:54.015Z,95131.00
2018-06-11T10:42:25.414Z,95133.00
2018-06-11T10:44:56.627Z,95134.00
2018-06-11T10:47:27.719Z,95131.00
2018-06-11T10:49:59.365Z,95137.00
2018-06-11T10:52:30.395Z,95135.00
2018-06-11T10:55:01.877Z,95130.00
2018-06-11T10:57:33.011Z,95121.00
2018-06-11T11:00:04.188Z,95120.00
2018-06-11T11:02:35.367Z,95111.00
2018-06-11T11:05:41.856Z,95112.00
2018-06-11T11:08:13.430Z,95111.00
2018-06-11T11:10:45.088Z,95106.00
2018-06-11T11:13:20.247Z,95100.00
2018-06-11T11:15:51.816Z,95104.00
2018-06-11T11:18:23.095Z,95100.00
2018-06-11T11:20:55.008Z,95090.00
2018-06-11T11:23:26.452Z,95091.00
2018-06-11T11:25:57.929Z,95094.00
2018-06-11T11:28:29.227Z,95100.00
2018-06-11T11:31:00.695Z,95099.00
2018-06-11T11:33:32.192Z,95098.00
2018-06-11T11:36:03.745Z,95085.00
2018-06-11T11:38:35.135Z,95080.00
2018-06-11T11:41:07.429Z,95075.00
2018-06-11T11:43:38.499Z,95065.00
2018-06-11T11:46:09.920Z,95072.00
2018-06-11T11:48:40.939Z,95071.00
2018-06-11T11:51:11.998Z,95068.00
2018-06-11T11:53:43.525Z,95065.00
2018-06-11T11:56:14.839Z,95075.00
2018-06-11T11:58:46.047Z,95077.00
2018-06-11T12:01:17.569Z,95076.00
2018-06-11T12:03:48.536Z,95076.00
2018-06-11T12:06:19.883Z,95074.00
2018-06-11T12:08:50.703Z,95078.00
2018-06-11T12:11:21.537Z,95074.00
2018-06-11T12:13:52.678Z,95074.00
2018-06-11T12:16:25.189Z,95080.00
2018-06-11T12:18:56.232Z,95078.00
2018-06-11T12:21:27.489Z,95067.00
2018-06-11T12:23:58.548Z,95054.00
2018-06-11T12:26:29.848Z,95054.00
2018-06-11T12:29:01.008Z,95047.00
2018-06-11T12:31:33.536Z,95031.00
2018-06-11T12:34:04.689Z,95014.00
2018-06-11T12:36:36.143Z,95003.00
2018-06-11T12:39:09.007Z,95009.00
2018-06-11T12:41:44.161Z,95002.00
2018-06-11T12:44:15.415Z,95005.00
2018-06-11T12:46:47.237Z,94993.00
2018-06-11T12:49:22.903Z,94995.00
2018-06-11T12:51:54.429Z,94997.00
2018-06-11T12:54:25.528Z,95001.00
2018-06-11T12:56:56.923Z,95003.00
2018-06-11T12:59:28.228Z,95000.00
2018-06-11T13:01:59.512Z,95001.00
2018-06-11T13:04:30.688Z,94996.00
2018-06-11T13:07:03.152Z,94987.00
2018-06-11T13:09:34.017Z,94981.00
2018-06-11T13:12:05.044Z,94987.00
2018-06-11T13:14:35.975Z,94978.00
2018-06-11T13:17:07.371Z,94983.00
2018-06-11T13:19:38.224Z,94997.00
2018-06-11T13:22:09.678Z,95019.00
2018-06-11T13:24:41.126Z,95032.00
2018-06-11T13:27:12.627Z,95035.00
2018-06-11T13:29:43.791Z,95036.00
2018-06-11T13:32:14.927Z,95030.00
2018-06-11T13:34:46.230Z,95026.00
2018-06-11T13:37:17.711Z,95011.00
2018-06-11T13:39:48.808Z,94995.00
2018-06-11T13:42:20.187Z,94988.00
2018-06-11T13:44:52.208Z,94988.00
2018-06-11T13:47:23.657Z,94982.00
2018-06-11T13:49:54.722Z,94984.00
2018-06-11T13:52:25.637Z,94984.00
2018-06-11T13:54:56.980Z,94980.00
2018-06-11T13:57:28.137Z,94978.00
2018-06-11T13:59:58.978Z,94979.00
2018-06-11T14:02:30.009Z,94977.00
2018-06-11T14:05:01.219Z,94976.00
2018-06-11T14:07:33.037Z,94975.00
2018-06-11T14:10:04.244Z,94984.00
2018-06-11T14:12:35.532Z,94986.00
2018-06-11T14:15:06.668Z,94983.00
2018-06-11T14:17:37.963Z,94980.00
2018-06-11T14:20:09.205Z,94979.00
2018-06-11T14:22:44.471Z,94970.00
2018-06-11T14:25:16.239Z,94967.00
2018-06-11T14:27:47.302Z,94964.00
2018-06-11T14:30:33.321Z,94968.00
2018-06-11T14:33:04.948Z,94963.00
2018-06-11T14:35:38.804Z,94942.00
2018-06-11T14:38:10.353Z,94932.00
2018-06-11T14:40:41.220Z,94934.00
2018-06-11T14:43:12.375Z,94942.00
2018-06-11T14:45:43.484Z,94941.00
2018-06-11T14:48:14.552Z,94943.00
2018-06-11T14:50:45.893Z,94941.00
2018-06-11T14:53:17.284Z,94953.00
2018-06-11T14:55:48.469Z,94956.00
2018-06-11T14:58:24.729Z,94959.00
2018-06-11T15:00:55.816Z,94948.00
2018-06-11T15:03:26.953Z,94941.00
2018-06-11T15:05:59.845Z,94930.00
2018-06-11T15:08:31.411Z,94916.00
2018-06-11T15:11:02.880Z,94909.00
2018-06-11T15:13:35.089Z,94909.00
2018-06-11T15:16:06.240Z,94918.00
2018-06-11T15:18:37.657Z,94927.00
2018-06-11T15:21:08.641Z,94932.00
2018-06-11T15:23:39.529Z,94936.00
2018-06-11T15:26:12.113Z,94932.00
2018-06-11T15:28:43.737Z,94926.00
2018-06-11T15:31:15.170Z,94909.00
2018-06-11T15:33:46.056Z,94896.00
2018-06-11T15:36:16.989Z,94889.00
2018-06-11T15:38:48.512Z,94892.00
2018-06-11T15:41:19.373Z,94893.00
2018-06-11T15:43:50.832Z,94892.00
2018-06-11T15:49:16.912Z,94887.00
2018-06-11T15:51:49.026Z,94890.00
2018-06-11T15:54:20.232Z,94885.00
2018-06-11T15:56:51.240Z,94872.00
2018-06-11T15:59:22.108Z,94865.00
2018-06-11T16:01:52.977Z,94850.00
2018-06-11T16:04:24.013Z,94847.00
2018-06-11T16:06:54.888Z,94844.00
2018-06-11T16:09:26.080Z,94835.00
2018-06-11T16:11:57.129Z,94825.00
2018-06-11T16:14:28.436Z,94823.00
2018-06-11T16:17:00.802Z,94830.00
2018-06-11T16:22:09.969Z,94823.00
2018-06-11T16:24:42.145Z,94826.00
2018-06-11T16:27:13.620Z,94825.00
2018-06-11T16:29:44.957Z,94814.00
2018-06-11T16:32:16.920Z,94814.00
2018-06-11T16:34:48.337Z,94809.00
2018-06-11T16:37:19.392Z,94800.00
2018-06-11T16:39:50.528Z,94806.00
2018-06-11T16:42:21.708Z,94807.00
2018-06-11T21:02:14.485Z,94868.00
2018-06-11T21:04:45.649Z,94865.00
2018-06-11T21:07:16.777Z,94863.00
2018-06-11T21:09:47.867Z,94865.00
2018-06-11T21:12:18.843Z,94865.00
2018-06-11T21:14:49.808Z,94865.00
2018-06-11T21:17:20.861Z,94860.00
2018-06-11T21:19:51.840Z,94860.00
2018-06-11T21:22:22.938Z,94862.00
2018-06-11T21:24:53.958Z,94862.00
2018-06-11T21:27:25.001Z,94860.00
2018-06-11T21:29:55.986Z,94856.00
2018-06-11T21:32:27.021Z,94858.00
2018-06-11T21:34:57.962Z,94855.00
2018-06-11T21:37:29.065Z,94854.00
2018-06-11T21:40:02.298Z,94851.00
2018-06-11T21:42:33.306Z,94845.00
2018-06-11T21:45:04.584Z,94850.00
2018-06-11T21:47:35.591Z,94843.00
2018-06-11T21:50:08.306Z,94841.00
2018-06-11T21:52:39.311Z,94842.00
2018-06-11T21:55:10.354Z,94835.00
2018-06-11T21:57:41.453Z,94830.00
2018-06-11T22:00:13.141Z,94826.00
2018-06-11T22:02:44.629Z,94826.00
2018-06-11T22:05:15.741Z,94826.00
2018-06-11T22:07:50.769Z,94821.00
2018-06-11T22:10:24.489Z,94820.00
2018-06-11T22:13:01.170Z,94821.00
2018-06-11T22:15:36.853Z,94819.00
2018-06-11T22:18:10.850Z,94815.00
2018-06-11T22:20:44.411Z,94821.00
2018-06-11T22:23:19.919Z,94822.00
2018-06-11T22:25:54.256Z,94819.00
2018-06-11T22:28:25.925Z,94821.00
2018-06-11T22:31:00.610Z,94820.00
2018-06-11T22:33:35.602Z,94829.00
2018-06-11T22:36:06.858Z,94833.00
2018-06-11T22:38:37.968Z,94840.00
2018-06-11T22:41:09.071Z,94843.00
2018-06-11T22:43:40.075Z,94847.00
2018-06-11T22:46:11.227Z,94846.00
2018-06-11T22:48:42.262Z,94842.00
2018-06-11T22:51:13.581Z,94843.00
2018-06-11T22:53:44.893Z,94839.00
2018-06-11T22:56:15.961Z,94833.00
2018-06-11T22:58:46.937Z,94842.00
2018-06-11T23:01:17.838Z,94843.00
2018-06-11T23:03:49.035Z,94849.00
2018-06-11T23:06:19.948Z,94850.00
2018-06-11T23:08:51.022Z,94843.00
2018-06-11T23:11:22.093Z,94848.00
2018-06-11T23:13:53.174Z,94849.00
2018-06-11T23:16:24.219Z,94851.00
2018-06-11T23:18:55.290Z,94862.00
2018-06-11T23:21:26.280Z,94855.00
2018-06-11T23:23:57.414Z,94861.00
2018-06-11T23:26:28.789Z,94858.00
2018-06-11T23:28:59.863Z,94859.00
2018-06-11T23:31:30.800Z,94864.00
2018-06-11T23:34:01.806Z,94860.00
2018-06-11T23:36:32.801Z,94858.00
2018-06-11T23:39:05.161Z,94856.00
2018-06-11T23:41:36.140Z,94857.00
2018-06-11T23:44:07.214Z,94858.00
2018-06-11T23:46:38.341Z,94857.00
2018-06-11T23:49:09.417Z,94858.00
2018-06-11T23:51:40.402Z,94862.00
2018-06-11T23:54:11.388Z,94856.00
2018-06-11T23:56:42.415Z,94858.00
2018-06-11T23:59:13.405Z,94856.00
